Decoded Metar for KZPH ( in ) (IATA:) | Meteo·Mobile Aviation Weather
aviador You're here:

KZPH Decoded Metar

in
Report Time2018-09-20 13:55:00
UTC Time2018-09-20 14:13:40
Flight Rules unknown UNKNOWN
WindCalm
VisibilityN/A
Phenomena:N/A
Clouds:N/A
Expected CloudBase > 1,200 ft AGL from Temp-Dew spread
CeilingNone
Temp28°C
Dew Point25°C (84% RH)
Heat Index32.7°C
QNH1019 hPa
Raw Report
KZPH 201355Z AUTO 00000KT CLR 28/25 A3008 RMK AO2 T02840246
PWINO=

Extra information for KZPH:More info

Social comments